Time;durP1;ratioP1;P1;durP2;ratioP2;P2;SDS_P1;SDS_P2;PMS_P1;PMS_P2;Temp;Humidity;BMP_temperature;BMP_pressure;BME280_temperature;BME280_humidity;BME280_pressure;Samples;Min_cycle;Max_cycle;Signal;HPM_P1;HPM_P2
2023/02/21 02:14:54;;;;;;;1.50;1.00;;;21.60;50.60;;;;;;5021584;28;20040;-66
2023/02/21 02:17:39;;;;;;;1.73;1.17;;;21.60;50.50;;;;;;5019009;28;20033;-67
2023/02/21 02:20:26;;;;;;;2.72;1.30;;;21.60;50.50;;;;;;5021298;28;20034;-66
2023/02/21 02:23:25;;;;;;;1.77;1.02;;;21.60;50.50;;;;;;5022323;28;20091;-67
2023/02/21 02:26:10;;;;;;;2.42;1.40;;;21.50;50.50;;;;;;5018593;28;20025;-68
2023/02/21 02:29:07;;;;;;;1.90;1.20;;;21.60;50.60;;;;;;5021141;28;20029;-67
2023/02/21 02:31:59;;;;;;;2.25;1.20;;;21.50;50.50;;;;;;5018449;28;20481;-67
2023/02/21 02:34:45;;;;;;;2.13;1.08;;;21.50;50.50;;;;;;5021249;28;20030;-67
2023/02/21 02:37:31;;;;;;;2.30;1.10;;;21.50;50.70;;;;;;5019719;28;20033;-67
2023/02/21 02:40:35;;;;;;;2.03;1.20;;;21.50;50.60;;;;;;5018429;28;20022;-66
2023/02/21 02:43:33;;;;;;;2.78;1.10;;;21.50;50.60;;;;;;5019757;28;20057;-67
2023/02/21 02:46:18;;;;;;;1.83;1.08;;;21.50;50.60;;;;;;5019145;28;20042;-68
2023/02/21 02:48:59;;;;;;;2.08;1.20;;;21.50;50.60;;;;;;5019209;28;20049;-67
2023/02/21 02:51:25;;;;;;;2.50;1.10;;;21.50;50.60;;;;;;5020962;28;20495;-66
2023/02/21 02:53:51;;;;;;;2.38;1.20;;;21.50;50.60;;;;;;5015605;28;20060;-66
2023/02/21 02:56:17;;;;;;;1.77;1.20;;;21.40;50.60;;;;;;5022344;28;20057;-66
2023/02/21 02:58:53;;;;;;;2.20;1.20;;;21.40;50.60;;;;;;5022020;28;20105;-67
2023/02/21 03:01:52;;;;;;;1.75;1.17;;;21.40;50.60;;;;;;5018981;28;20105;-66
2023/02/21 03:04:29;;;;;;;1.80;1.10;;;21.40;50.60;;;;;;5019314;28;20503;-66
2023/02/21 03:07:07;;;;;;;2.28;1.30;;;21.40;50.60;;;;;;5021164;28;20034;-67
2023/02/21 03:10:07;;;;;;;1.83;1.17;;;21.40;50.60;;;;;;5019743;28;20017;-67
2023/02/21 03:13:11;;;;;;;2.05;1.10;;;21.40;50.60;;;;;;5020274;28;20480;-67
2023/02/21 03:15:55;;;;;;;1.73;1.00;;;21.40;51.10;;;;;;5018283;28;20109;-66
2023/02/21 03:18:40;;;;;;;1.92;1.02;;;21.40;50.60;;;;;;5019701;28;20065;-66
2023/02/21 03:21:13;;;;;;;1.73;0.98;;;21.40;50.60;;;;;;5021407;28;20389;-66
2023/02/21 03:23:40;;;;;;;2.45;1.00;;;21.40;50.60;;;;;;5018555;28;20029;-67
2023/02/21 03:26:09;;;;;;;1.77;1.05;;;21.40;50.60;;;;;;5016429;28;20122;-66
2023/02/21 03:28:35;;;;;;;1.43;0.93;;;21.30;50.60;;;;;;5017863;28;20041;-67
2023/02/21 03:31:04;;;;;;;2.13;1.10;;;21.30;50.60;;;;;;5019204;28;20343;-66
2023/02/21 03:33:30;;;;;;;1.80;1.08;;;21.30;50.60;;;;;;5021040;28;20026;-68
2023/02/21 03:35:58;;;;;;;1.65;0.95;;;21.30;50.60;;;;;;5017181;28;20113;-67
2023/02/21 03:38:27;;;;;;;1.27;0.90;;;21.30;50.60;;;;;;5019314;28;20040;-66
2023/02/21 03:40:53;;;;;;;1.65;1.05;;;21.30;50.60;;;;;;5020208;28;20022;-66
2023/02/21 03:43:19;;;;;;;1.75;1.10;;;21.30;50.60;;;;;;5022893;28;20092;-66
2023/02/21 03:45:45;;;;;;;0.93;0.75;;;21.30;50.60;;;;;;5021038;28;20038;-68
2023/02/21 03:48:10;;;;;;;1.50;1.00;;;21.30;50.60;;;;;;5019984;28;20030;-67
2023/02/21 03:50:36;;;;;;;1.65;1.00;;;21.30;50.70;;;;;;5021454;28;20044;-67
2023/02/21 03:53:02;;;;;;;1.60;0.90;;;21.30;50.70;;;;;;5016809;28;20412;-67
2023/02/21 03:55:28;;;;;;;1.55;1.15;;;21.30;50.70;;;;;;5020202;28;20436;-67
2023/02/21 03:57:54;;;;;;;1.10;0.80;;;21.30;50.70;;;;;;5020039;28;20072;-67
2023/02/21 04:00:19;;;;;;;1.75;1.00;;;21.30;50.70;;;;;;5021473;28;20037;-67
2023/02/21 04:02:45;;;;;;;1.63;1.05;;;21.20;50.60;;;;;;5020478;28;20057;-67
2023/02/21 04:05:10;;;;;;;1.20;0.85;;;21.20;50.60;;;;;;5019983;28;20179;-66
2023/02/21 04:07:37;;;;;;;1.42;0.95;;;21.20;50.60;;;;;;5020487;28;20033;-66
2023/02/21 04:10:03;;;;;;;1.65;1.00;;;21.20;50.60;;;;;;5018162;28;20054;-67
2023/02/21 04:12:29;;;;;;;1.55;0.93;;;21.20;50.60;;;;;;5019260;28;20480;-66
2023/02/21 04:14:55;;;;;;;1.80;1.00;;;21.20;50.60;;;;;;5022745;28;20025;-66
2023/02/21 04:17:21;;;;;;;1.90;1.10;;;21.20;50.60;;;;;;5020021;28;20033;-66
2023/02/21 04:19:47;;;;;;;1.20;0.80;;;21.20;50.70;;;;;;5019140;28;20033;-66
2023/02/21 04:22:12;;;;;;;1.30;0.90;;;21.20;50.60;;;;;;5020116;28;20025;-66
2023/02/21 04:24:38;;;;;;;1.50;1.00;;;21.20;50.70;;;;;;5021018;28;20473;-66
2023/02/21 04:27:04;;;;;;;2.03;1.00;;;21.20;50.60;;;;;;5017818;28;20029;-67
2023/02/21 04:29:29;;;;;;;1.42;0.93;;;21.20;50.60;;;;;;5020084;28;20726;-66
2023/02/21 04:31:55;;;;;;;1.80;1.10;;;21.20;50.60;;;;;;5019113;28;20025;-65
2023/02/21 04:34:21;;;;;;;1.02;0.90;;;21.20;50.60;;;;;;5019448;28;20493;-67
2023/02/21 04:36:47;;;;;;;1.33;0.80;;;21.20;50.60;;;;;;5015268;28;20036;-66
2023/02/21 04:39:13;;;;;;;1.73;1.00;;;21.20;50.70;;;;;;5017794;28;20029;-67
2023/02/21 04:41:39;;;;;;;1.50;0.90;;;21.20;50.70;;;;;;5021131;28;20036;-65
2023/02/21 04:44:05;;;;;;;1.42;1.00;;;21.10;50.60;;;;;;5019501;28;20100;-66
2023/02/21 04:46:31;;;;;;;1.67;1.00;;;21.20;50.70;;;;;;5018706;28;20061;-66
2023/02/21 04:48:57;;;;;;;1.02;0.82;;;21.20;50.70;;;;;;5020911;28;20040;-66
2023/02/21 04:51:24;;;;;;;1.55;0.98;;;21.20;50.70;;;;;;5023568;28;20034;-65
2023/02/21 04:53:52;;;;;;;1.27;0.80;;;21.10;50.60;;;;;;5020637;28;20444;-66
2023/02/21 04:56:20;;;;;;;1.45;1.00;;;21.10;50.60;;;;;;5022845;28;20441;-67
2023/02/21 04:58:46;;;;;;;1.80;1.00;;;21.10;50.70;;;;;;5023460;28;20022;-67
2023/02/21 05:01:13;;;;;;;1.55;1.00;;;21.10;50.60;;;;;;5025425;28;20041;-67
2023/02/21 05:03:38;;;;;;;1.63;0.90;;;21.10;50.60;;;;;;5022046;28;20026;-66
2023/02/21 05:06:04;;;;;;;1.77;0.85;;;21.10;50.70;;;;;;5021300;28;20040;-66
2023/02/21 05:08:30;;;;;;;1.70;1.00;;;21.10;50.70;;;;;;5020975;28;20607;-68
2023/02/21 05:10:56;;;;;;;2.72;0.98;;;21.10;50.70;;;;;;5022206;28;20034;-67
2023/02/21 05:13:22;;;;;;;1.15;0.80;;;21.10;50.70;;;;;;5023991;28;20129;-68
2023/02/21 05:15:48;;;;;;;1.65;1.05;;;21.10;50.70;;;;;;5020727;28;20080;-68
2023/02/21 05:18:21;;;;;;;1.33;0.85;;;21.10;50.70;;;;;;5021922;28;20034;-66
2023/02/21 05:20:47;;;;;;;1.17;0.80;;;21.10;50.70;;;;;;5024936;28;20079;-66
2023/02/21 05:23:15;;;;;;;1.55;0.90;;;21.10;50.70;;;;;;5022944;28;20558;-67
2023/02/21 05:25:41;;;;;;;1.48;1.00;;;21.10;50.70;;;;;;5021569;28;20026;-66
2023/02/21 05:28:07;;;;;;;1.70;1.00;;;21.10;50.70;;;;;;5025388;28;20085;-66
2023/02/21 05:30:33;;;;;;;0.82;0.77;;;21.10;50.70;;;;;;5021694;28;20064;-68
2023/02/21 05:32:59;;;;;;;1.13;0.80;;;21.10;50.70;;;;;;5031826;28;20433;-67
2023/02/21 05:35:25;;;;;;;1.00;0.80;;;21.00;50.70;;;;;;5021275;28;20030;-67
2023/02/21 05:37:51;;;;;;;1.35;0.88;;;21.10;51.30;;;;;;5029906;28;20527;-65
2023/02/21 05:40:17;;;;;;;1.67;0.90;;;21.00;50.70;;;;;;5022215;28;20030;-65
2023/02/21 05:42:43;;;;;;;1.58;1.00;;;21.00;50.70;;;;;;5021028;28;20033;-66
2023/02/21 05:45:09;;;;;;;2.08;1.08;;;21.00;50.70;;;;;;5020248;28;20061;-66
2023/02/21 05:47:35;;;;;;;1.48;0.90;;;21.10;51.30;;;;;;5020115;28;20033;-66
2023/02/21 05:50:02;;;;;;;1.30;0.80;;;21.00;50.70;;;;;;5021936;28;20029;-67
2023/02/21 05:52:29;;;;;;;1.38;0.80;;;21.00;50.70;;;;;;5028280;28;20034;-66
2023/02/21 05:54:54;;;;;;;1.30;0.90;;;21.00;50.70;;;;;;5023513;28;20026;-67
2023/02/21 05:57:20;;;;;;;1.20;0.90;;;21.00;50.80;;;;;;5023589;28;20033;-66
2023/02/21 05:59:47;;;;;;;1.33;0.88;;;21.00;50.70;;;;;;5019875;28;20486;-67
2023/02/21 06:02:14;;;;;;;1.73;1.05;;;21.00;50.70;;;;;;5018769;28;20026;-67
2023/02/21 06:04:39;;;;;;;0.93;0.82;;;21.00;50.70;;;;;;5022405;28;20036;-66
2023/02/21 06:07:05;;;;;;;1.83;1.10;;;21.00;50.70;;;;;;5021850;28;20030;-66
2023/02/21 06:09:31;;;;;;;0.90;0.80;;;21.00;50.70;;;;;;5019445;28;20518;-66
2023/02/21 06:11:57;;;;;;;1.15;0.77;;;21.00;50.70;;;;;;5022789;28;20026;-66
2023/02/21 06:14:24;;;;;;;0.90;0.77;;;21.00;50.70;;;;;;5021132;28;20496;-66
2023/02/21 06:16:49;;;;;;;1.40;0.98;;;21.00;50.70;;;;;;5023211;28;20551;-67
2023/02/21 06:19:16;;;;;;;1.42;0.90;;;21.00;50.70;;;;;;5026294;28;20034;-66
2023/02/21 06:21:42;;;;;;;1.70;0.98;;;21.00;50.70;;;;;;5022017;28;20022;-66
2023/02/21 06:24:09;;;;;;;1.67;0.93;;;21.00;50.70;;;;;;5020378;28;20504;-65
2023/02/21 06:26:36;;;;;;;1.52;1.00;;;21.00;50.80;;;;;;5022003;28;20080;-66
2023/02/21 06:29:03;;;;;;;1.55;1.00;;;21.00;50.70;;;;;;5021986;28;20022;-67
2023/02/21 06:31:28;;;;;;;1.60;1.00;;;21.00;50.80;;;;;;5021259;28;20033;-65
2023/02/21 06:33:54;;;;;;;1.38;0.80;;;21.00;50.80;;;;;;5018999;28;20469;-65
2023/02/21 06:36:22;;;;;;;1.42;0.80;;;21.00;50.80;;;;;;5020579;28;20022;-65
2023/02/21 06:38:50;;;;;;;1.30;0.90;;;21.00;50.80;;;;;;5019967;28;20045;-66
2023/02/21 06:41:18;;;;;;;1.48;0.82;;;21.00;50.80;;;;;;5020775;28;20087;-67
2023/02/21 06:43:44;;;;;;;1.33;0.90;;;21.00;50.90;;;;;;5018546;28;20466;-65
2023/02/21 06:46:14;;;;;;;1.50;0.90;;;21.00;50.90;;;;;;5020599;28;20040;-66
2023/02/21 06:48:39;;;;;;;1.20;0.70;;;21.00;50.90;;;;;;5018187;28;20041;-65
2023/02/21 06:51:09;;;;;;;1.55;0.93;;;20.90;50.80;;;;;;5038540;28;20592;-66
2023/02/21 06:53:34;;;;;;;0.77;0.77;;;21.00;50.90;;;;;;5019923;28;20021;-67
2023/02/21 06:56:00;;;;;;;0.90;0.70;;;20.90;50.80;;;;;;5022263;28;20053;-65
2023/02/21 06:58:25;;;;;;;1.88;0.90;;;21.00;50.90;;;;;;5021464;28;20041;-66
2023/02/21 07:00:51;;;;;;;1.38;0.90;;;20.90;50.90;;;;;;5019476;28;20655;-65
2023/02/21 07:03:16;;;;;;;1.33;0.93;;;20.90;50.80;;;;;;5017505;28;20034;-68
2023/02/21 07:05:42;;;;;;;1.55;1.10;;;20.90;50.80;;;;;;5016823;28;20034;-67
2023/02/21 07:08:08;;;;;;;1.10;0.80;;;20.90;50.80;;;;;;5022319;28;20091;-65
2023/02/21 07:10:34;;;;;;;1.27;0.90;;;20.90;50.80;;;;;;5019718;28;20413;-65
2023/02/21 07:12:59;;;;;;;1.20;0.90;;;20.90;50.80;;;;;;5017727;28;20030;-65
2023/02/21 07:15:25;;;;;;;1.23;0.90;;;20.90;50.90;;;;;;5018910;28;20033;-65
2023/02/21 07:17:51;;;;;;;1.50;0.90;;;20.90;50.90;;;;;;5020906;28;20046;-66
2023/02/21 07:20:17;;;;;;;1.42;0.80;;;20.90;50.90;;;;;;5016456;28;20033;-68
2023/02/21 07:22:42;;;;;;;1.20;0.80;;;20.90;50.90;;;;;;5019572;28;20025;-65
2023/02/21 07:25:08;;;;;;;1.05;0.80;;;20.90;50.90;;;;;;5019916;28;20076;-65
2023/02/21 07:27:34;;;;;;;1.23;0.90;;;20.90;50.90;;;;;;5020809;28;20029;-65
2023/02/21 07:30:00;;;;;;;1.48;0.90;;;20.90;50.90;;;;;;5020613;28;20036;-64
2023/02/21 07:32:25;;;;;;;1.30;0.70;;;20.90;50.90;;;;;;5019526;28;20048;-65
2023/02/21 07:34:51;;;;;;;1.10;0.80;;;20.90;50.90;;;;;;5018147;28;20464;-65
2023/02/21 07:37:17;;;;;;;1.10;0.80;;;20.90;50.90;;;;;;5019088;28;20030;-66
2023/02/21 07:39:42;;;;;;;0.88;0.77;;;20.90;50.90;;;;;;5019443;28;20025;-65
2023/02/21 07:42:08;;;;;;;1.05;0.88;;;20.90;50.90;;;;;;5018849;28;20378;-65
2023/02/21 07:44:34;;;;;;;1.20;0.90;;;20.90;51.00;;;;;;5018457;28;20480;-65
2023/02/21 07:46:59;;;;;;;1.02;0.80;;;20.90;51.00;;;;;;5020525;28;20489;-64
2023/02/21 07:49:25;;;;;;;1.05;0.70;;;20.90;50.90;;;;;;5018793;28;20030;-64
2023/02/21 07:51:51;;;;;;;1.23;0.82;;;20.90;51.00;;;;;;5019479;28;20501;-65
2023/02/21 07:54:17;;;;;;;1.40;0.95;;;20.90;51.00;;;;;;5020479;28;20058;-65
2023/02/21 07:56:47;;;;;;;1.38;0.80;;;20.90;50.90;;;;;;5020249;28;20025;-66
2023/02/21 07:59:14;;;;;;;1.58;0.90;;;20.90;50.90;;;;;;5019344;28;20072;-65
2023/02/21 08:01:40;;;;;;;1.58;1.02;;;20.90;50.90;;;;;;5020346;28;20046;-66
2023/02/21 08:04:06;;;;;;;1.60;0.80;;;20.90;50.80;;;;;;5022209;28;20052;-65
2023/02/21 08:06:34;;;;;;;1.25;0.90;;;20.90;50.80;;;;;;5017413;28;20474;-67
2023/02/21 08:08:59;;;;;;;1.10;0.80;;;20.90;50.80;;;;;;5017021;28;20033;-66
2023/02/21 08:11:25;;;;;;;1.30;0.90;;;20.90;50.80;;;;;;5019041;28;20099;-66
2023/02/21 08:13:51;;;;;;;1.55;0.90;;;20.90;50.70;;;;;;5017598;28;20029;-66
2023/02/21 08:16:16;;;;;;;1.55;1.00;;;20.90;50.60;;;;;;5017772;28;20021;-67
2023/02/21 08:18:42;;;;;;;1.77;0.90;;;20.90;50.60;;;;;;5015157;28;20036;-66
2023/02/21 08:21:10;;;;;;;1.33;1.00;;;20.90;50.60;;;;;;5018541;28;20501;-66
2023/02/21 08:23:36;;;;;;;1.67;1.00;;;20.90;50.50;;;;;;5020173;28;20465;-66
2023/02/21 08:26:03;;;;;;;2.15;1.27;;;20.90;50.40;;;;;;5018782;28;20057;-65
2023/02/21 08:28:29;;;;;;;1.58;1.00;;;20.90;50.40;;;;;;5022275;28;20497;-66
2023/02/21 08:30:54;;;;;;;1.40;0.90;;;20.90;50.40;;;;;;5021760;28;20029;-64
2023/02/21 08:33:21;;;;;;;1.55;1.00;;;20.80;50.30;;;;;;5023521;28;20464;-64
2023/02/21 08:35:46;;;;;;;2.08;1.00;;;20.80;50.30;;;;;;5027343;28;20064;-66
2023/02/21 08:38:12;;;;;;;2.42;1.00;;;20.90;50.30;;;;;;5018459;28;20053;-66
2023/02/21 08:40:38;;;;;;;1.92;1.10;;;20.90;50.20;;;;;;5017256;28;20125;-64
2023/02/21 08:43:04;;;;;;;2.25;1.27;;;20.80;50.10;;;;;;5021079;28;20517;-65
2023/02/21 08:45:30;;;;;;;1.48;1.00;;;20.80;50.10;;;;;;5018300;28;20132;-65
2023/02/21 08:47:57;;;;;;;1.95;1.10;;;20.80;50.10;;;;;;5021024;28;20530;-66
2023/02/21 08:50:24;;;;;;;2.22;1.30;;;20.80;50.10;;;;;;5020073;28;20078;-66
2023/02/21 08:52:50;;;;;;;1.90;1.10;;;20.80;50.10;;;;;;5014903;28;20022;-66
2023/02/21 08:55:16;;;;;;;1.85;1.08;;;20.80;50.10;;;;;;5018526;28;20026;-65
2023/02/21 08:57:42;;;;;;;1.58;1.00;;;20.80;50.10;;;;;;5019809;28;20033;-65
2023/02/21 09:00:10;;;;;;;3.22;1.10;;;20.80;50.10;;;;;;5019207;28;20034;-67
2023/02/21 09:02:39;;;;;;;1.92;1.20;;;20.80;50.20;;;;;;5020345;28;20025;-67
2023/02/21 09:05:10;;;;;;;1.70;1.20;;;20.80;50.20;;;;;;5018582;28;20109;-67
2023/02/21 09:07:36;;;;;;;1.58;1.08;;;20.80;50.20;;;;;;5019266;28;20036;-68
2023/02/21 09:10:03;;;;;;;2.60;1.20;;;20.80;50.20;;;;;;5017723;28;20025;-67
2023/02/21 09:12:29;;;;;;;2.33;1.35;;;20.80;50.30;;;;;;5019539;28;20530;-67
2023/02/21 09:14:55;;;;;;;2.10;1.13;;;20.80;50.30;;;;;;5019883;28;20025;-68
2023/02/21 09:17:20;;;;;;;2.20;1.20;;;20.80;50.40;;;;;;5014882;28;20103;-67
2023/02/21 09:19:46;;;;;;;2.22;1.17;;;20.80;50.40;;;;;;5020189;28;20026;-67
2023/02/21 09:22:12;;;;;;;3.60;1.10;;;20.80;50.40;;;;;;5019078;28;20030;-68
2023/02/21 09:24:37;;;;;;;2.40;1.30;;;20.80;50.40;;;;;;5019081;28;20029;-67
2023/02/21 09:27:04;;;;;;;1.88;1.20;;;20.80;50.50;;;;;;5014573;28;20026;-67
2023/02/21 09:29:32;;;;;;;2.00;1.10;;;20.80;50.50;;;;;;5021316;28;20034;-67
2023/02/21 09:31:58;;;;;;;2.15;1.15;;;20.80;50.60;;;;;;5015452;28;20022;-66
2023/02/21 09:34:24;;;;;;;2.10;1.05;;;20.80;50.60;;;;;;5017594;28;20091;-67
2023/02/21 09:36:53;;;;;;;1.92;1.10;;;20.80;50.60;;;;;;5022060;28;20030;-67
2023/02/21 09:39:20;;;;;;;3.17;1.17;;;20.70;50.60;;;;;;5022159;28;20034;-68
2023/02/21 09:41:46;;;;;;;1.85;1.25;;;20.70;50.60;;;;;;5017966;28;20491;-68
2023/02/21 09:44:23;;;;;;;1.98;1.15;;;20.70;50.60;;;;;;5020046;28;20022;-68
2023/02/21 09:46:57;;;;;;;2.25;1.10;;;20.70;50.70;;;;;;5022328;28;20388;-67
2023/02/21 09:49:36;;;;;;;2.45;1.10;;;20.70;50.70;;;;;;5021713;28;20835;-67
2023/02/21 09:52:02;;;;;;;2.25;1.30;;;20.70;50.70;;;;;;5021046;28;20026;-67
2023/02/21 09:54:42;;;;;;;2.00;1.30;;;20.70;50.70;;;;;;5021909;28;20026;-68
2023/02/21 09:57:14;;;;;;;1.52;1.10;;;20.70;50.70;;;;;;5022751;28;20456;-68
2023/02/21 09:59:40;;;;;;;2.60;1.23;;;20.70;50.70;;;;;;5021888;28;20033;-68
2023/02/21 10:02:38;;;;;;;3.28;1.30;;;20.70;50.80;;;;;;5023170;28;20061;-67
2023/02/21 10:05:31;;;;;;;1.10;0.90;;;20.70;50.80;;;;;;5007877;28;20393;-68
2023/02/21 10:08:29;;;;;;;2.90;1.10;;;20.70;50.90;;;;;;5020535;28;20026;-67
2023/02/21 10:11:05;;;;;;;1.60;1.05;;;20.70;50.90;;;;;;5021772;28;20064;-67
2023/02/21 10:13:38;;;;;;;1.98;1.30;;;20.70;50.90;;;;;;5021670;28;20469;-67
2023/02/21 10:16:14;;;;;;;1.52;1.00;;;20.70;50.90;;;;;;5018521;28;20023;-67
2023/02/21 10:18:56;;;;;;;1.88;1.13;;;20.70;50.90;;;;;;5023128;28;20152;-67
2023/02/21 10:21:33;;;;;;;2.00;1.20;;;20.70;50.90;;;;;;5016526;28;20026;-68
2023/02/21 10:24:03;;;;;;;2.17;1.20;;;20.70;50.90;;;;;;5021994;28;20100;-67
2023/02/21 10:26:36;;;;;;;1.80;1.10;;;20.70;50.90;;;;;;5020841;28;20026;-67
2023/02/21 10:29:05;;;;;;;1.83;1.20;;;20.70;50.90;;;;;;5015552;28;20046;-68
2023/02/21 10:31:38;;;;;;;1.88;1.20;;;20.70;50.90;;;;;;5023279;28;20396;-67
2023/02/21 10:34:06;;;;;;;2.20;1.40;;;20.70;50.90;;;;;;5019938;28;20033;-68
2023/02/21 10:36:33;;;;;;;2.30;1.23;;;20.70;51.00;;;;;;5021920;28;20026;-68
2023/02/21 10:39:08;;;;;;;3.72;1.17;;;20.70;51.00;;;;;;5022830;28;20097;-67
2023/02/21 10:41:37;;;;;;;1.52;1.10;;;20.70;51.00;;;;;;5020309;28;20093;-67
2023/02/21 10:44:21;;;;;;;1.58;1.05;;;20.70;51.00;;;;;;5023542;28;20029;-68
2023/02/21 10:47:05;;;;;;;1.98;1.05;;;20.70;51.00;;;;;;5019625;28;20033;-68
2023/02/21 10:49:43;;;;;;;1.98;1.10;;;20.70;51.00;;;;;;5021840;28;20083;-68
2023/02/21 10:52:12;;;;;;;1.90;1.08;;;20.70;51.00;;;;;;5022070;28;20124;-67
2023/02/21 10:54:39;;;;;;;1.35;1.00;;;20.70;51.00;;;;;;5015341;28;20029;-67
2023/02/21 10:57:09;;;;;;;1.90;1.25;;;20.70;51.00;;;;;;5018204;28;20030;-68
2023/02/21 10:59:41;;;;;;;2.38;1.13;;;20.70;51.00;;;;;;5020352;28;20068;-68
2023/02/21 11:02:32;;;;;;;1.63;1.00;;;20.70;51.10;;;;;;5020792;28;20034;-67
2023/02/21 11:05:12;;;;;;;1.90;1.13;;;20.70;51.00;;;;;;5021514;28;20477;-69
2023/02/21 11:07:37;;;;;;;1.45;0.98;;;20.70;51.10;;;;;;5016734;28;20039;-67
2023/02/21 11:10:25;;;;;;;1.55;1.10;;;20.70;51.00;;;;;;5019795;28;20057;-68
2023/02/21 11:13:09;;;;;;;2.17;0.90;;;20.70;51.00;;;;;;5019944;28;20449;-67
2023/02/21 11:15:35;;;;;;;1.58;1.00;;;20.70;51.00;;;;;;5016625;28;20022;-68
2023/02/21 11:18:11;;;;;;;1.52;1.00;;;20.70;51.60;;;;;;5020611;28;20035;-67
2023/02/21 11:20:37;;;;;;;1.92;1.00;;;20.70;51.00;;;;;;5021080;28;20044;-68
2023/02/21 11:23:05;;;;;;;1.65;1.05;;;20.70;51.00;;;;;;5017731;28;20401;-68
2023/02/21 11:25:38;;;;;;;2.00;1.20;;;20.80;51.10;;;;;;5021185;28;20476;-67
2023/02/21 11:28:09;;;;;;;1.85;1.05;;;20.70;51.00;;;;;;5020187;28;20042;-67
2023/02/21 11:30:38;;;;;;;1.63;1.10;;;20.70;51.00;;;;;;5021053;28;20068;-69
2023/02/21 11:33:06;;;;;;;1.90;1.20;;;20.70;51.10;;;;;;5019514;28;20434;-67
2023/02/21 11:35:51;;;;;;;1.92;1.10;;;20.80;51.10;;;;;;5019563;28;20083;-67
2023/02/21 11:38:37;;;;;;;1.25;1.00;;;20.80;51.10;;;;;;5020180;28;20159;-67
2023/02/21 11:41:21;;;;;;;2.25;1.20;;;20.80;51.20;;;;;;5022548;28;20032;-68
2023/02/21 11:43:54;;;;;;;1.20;1.00;;;20.70;51.10;;;;;;5017043;28;20108;-67
2023/02/21 11:46:32;;;;;;;1.90;1.00;;;20.80;51.30;;;;;;5021601;28;20477;-68
2023/02/21 11:49:11;;;;;;;1.63;1.10;;;20.80;51.30;;;;;;5020274;28;20026;-68
2023/02/21 11:51:58;;;;;;;1.83;1.05;;;20.80;51.40;;;;;;5019420;28;20026;-67
2023/02/21 11:54:29;;;;;;;1.45;1.00;;;20.80;51.40;;;;;;5019147;28;20490;-68
2023/02/21 11:57:36;;;;;;;1.80;1.10;;;20.80;51.40;;;;;;5019210;28;20022;-67
2023/02/21 12:00:21;;;;;;;2.10;1.25;;;20.80;51.40;;;;;;4997988;28;20053;-67
2023/02/21 12:02:50;;;;;;;1.52;1.02;;;20.80;51.40;;;;;;5019764;28;20025;-68
2023/02/21 12:05:50;;;;;;;2.00;1.10;;;20.80;51.50;;;;;;5023015;28;20061;-68
2023/02/21 12:08:37;;;;;;;1.38;0.93;;;20.80;51.50;;;;;;5017898;28;20076;-68
2023/02/21 12:11:22;;;;;;;2.35;1.20;;;20.80;51.50;;;;;;5020634;28;20053;-68
2023/02/21 12:14:12;;;;;;;1.70;1.10;;;20.80;51.50;;;;;;5020011;28;20041;-67
2023/02/21 12:17:05;;;;;;;1.65;1.00;;;20.80;51.50;;;;;;5018305;28;20032;-67
2023/02/21 12:19:46;;;;;;;2.08;1.27;;;20.80;51.50;;;;;;5020972;28;20029;-68
2023/02/21 12:22:35;;;;;;;1.60;1.05;;;20.80;51.50;;;;;;5017380;28;20441;-68
2023/02/21 12:25:21;;;;;;;1.70;1.02;;;20.80;51.50;;;;;;5019525;28;20055;-67
2023/02/21 12:28:11;;;;;;;2.05;1.00;;;20.80;51.60;;;;;;5018688;28;20307;-67
2023/02/21 12:30:36;;;;;;;1.45;1.00;;;20.80;51.50;;;;;;5016444;28;20053;-67
2023/02/21 12:33:20;;;;;;;1.30;1.00;;;20.80;51.50;;;;;;5013971;28;20115;-67
2023/02/21 12:36:15;;;;;;;2.55;1.20;;;20.80;51.60;;;;;;5016266;28;20106;-67
2023/02/21 12:39:16;;;;;;;1.67;1.10;;;20.80;52.10;;;;;;5018364;28;20389;-67
2023/02/21 12:41:52;;;;;;;1.65;1.10;;;20.80;51.60;;;;;;5019009;28;20026;-67
2023/02/21 12:44:21;;;;;;;1.55;1.10;;;20.80;51.60;;;;;;5018580;28;20029;-67
2023/02/21 12:47:14;;;;;;;2.17;1.10;;;20.80;51.70;;;;;;5020386;28;20092;-67
2023/02/21 12:49:46;;;;;;;1.40;1.00;;;20.90;51.70;;;;;;5018793;28;20045;-67
2023/02/21 12:52:37;;;;;;;1.70;1.20;;;20.90;51.70;;;;;;5017771;28;20112;-67
2023/02/21 12:55:22;;;;;;;1.80;1.08;;;20.80;51.70;;;;;;5020920;28;20030;-67
2023/02/21 12:57:59;;;;;;;2.40;1.17;;;20.80;51.70;;;;;;5020823;28;20080;-67
2023/02/21 13:00:39;;;;;;;1.70;1.10;;;20.80;51.70;;;;;;5020119;28;20405;-67
2023/02/21 13:03:24;;;;;;;1.90;1.00;;;20.90;51.70;;;;;;5018130;28;20025;-67
2023/02/21 13:05:56;;;;;;;1.83;0.90;;;20.90;51.80;;;;;;5018067;28;20041;-67
2023/02/21 13:08:32;;;;;;;1.77;1.00;;;20.90;51.70;;;;;;5023712;28;20113;-67
2023/02/21 13:11:28;;;;;;;1.85;1.10;;;20.90;51.80;;;;;;5027663;28;20474;-67
2023/02/21 13:13:55;;;;;;;2.33;1.30;;;20.90;51.80;;;;;;5021407;28;20026;-68
2023/02/21 13:16:21;;;;;;;2.33;1.45;;;20.90;51.80;;;;;;5021787;28;20033;-68
2023/02/21 13:18:49;;;;;;;2.08;1.33;;;20.90;51.90;;;;;;5019613;28;20444;-68
2023/02/21 13:21:18;;;;;;;3.00;1.55;;;20.90;51.90;;;;;;5020008;28;20021;-68
2023/02/21 13:27:16;;;;;;;2.30;1.70;;;20.90;52.00;;;;;;5023362;28;20140;-67
2023/02/21 13:29:42;;;;;;;2.60;1.63;;;20.90;52.00;;;;;;5019437;28;20128;-67
2023/02/21 13:32:10;;;;;;;2.53;1.60;;;20.90;52.00;;;;;;5024725;28;20101;-68
2023/02/21 13:34:41;;;;;;;3.40;1.70;;;20.90;52.10;;;;;;5019348;28;20025;-68
2023/02/21 13:37:15;;;;;;;2.80;1.70;;;20.90;52.10;;;;;;5022906;28;20036;-68
2023/02/21 13:39:50;;;;;;;2.55;1.60;;;21.00;52.20;;;;;;5021062;28;20435;-68
2023/02/21 13:42:19;;;;;;;3.22;1.55;;;21.00;52.10;;;;;;5023257;28;20059;-68
2023/02/21 13:45:02;;;;;;;2.78;1.50;;;20.90;52.00;;;;;;5022344;28;20102;-68
2023/02/21 13:47:57;;;;;;;2.70;1.50;;;20.90;52.00;;;;;;5024536;28;20099;-67
2023/02/21 13:50:38;;;;;;;2.92;1.42;;;20.90;52.10;;;;;;5023290;28;20024;-68
2023/02/21 13:53:15;;;;;;;2.70;1.52;;;21.00;52.20;;;;;;5020415;28;20041;-67
2023/02/21 13:56:11;;;;;;;3.25;1.60;;;21.00;52.30;;;;;;5020586;28;20036;-68
2023/02/21 13:58:39;;;;;;;3.40;1.60;;;21.00;52.30;;;;;;5022108;28;20026;-68
2023/02/21 14:01:27;;;;;;;3.63;1.50;;;21.00;52.90;;;;;;5022043;28;20342;-66
2023/02/21 14:03:53;;;;;;;2.63;1.38;;;21.00;52.60;;;;;;5022446;28;20465;-67
2023/02/21 14:06:30;;;;;;;2.95;1.33;;;21.00;52.50;;;;;;5023057;28;20473;-67
2023/02/21 14:09:08;;;;;;;2.50;1.40;;;21.00;52.60;;;;;;5022706;28;20032;-68
2023/02/21 14:11:47;;;;;;;4.43;1.48;;;21.00;52.60;;;;;;5019278;28;20022;-67
2023/02/21 14:14:28;;;;;;;2.67;1.30;;;21.00;52.60;;;;;;5020368;28;20377;-67
2023/02/21 14:17:07;;;;;;;2.58;1.30;;;21.00;52.70;;;;;;5020489;28;20030;-67
2023/02/21 14:19:53;;;;;;;2.50;1.30;;;21.00;52.60;;;;;;5018408;28;20048;-67
2023/02/21 14:22:30;;;;;;;3.10;1.30;;;21.00;52.60;;;;;;5020632;28;20050;-67
2023/02/21 14:25:22;;;;;;;3.25;1.30;;;21.10;52.60;;;;;;5019255;28;20102;-67
2023/02/21 14:27:50;;;;;;;3.33;1.33;;;21.10;52.70;;;;;;5021389;28;20045;-67
2023/02/21 14:30:26;;;;;;;2.70;1.30;;;21.10;52.60;;;;;;5020445;28;20017;-67
2023/02/21 14:32:54;;;;;;;2.85;1.10;;;21.10;52.60;;;;;;5022736;28;20054;-67
2023/02/21 14:35:22;;;;;;;2.33;1.20;;;21.10;52.50;;;;;;5022395;28;20466;-67
2023/02/21 14:38:18;;;;;;;4.13;1.38;;;21.10;52.50;;;;;;5020653;28;20026;-68
2023/02/21 14:40:55;;;;;;;2.55;1.20;;;21.10;52.50;;;;;;5019815;28;20046;-68
2023/02/21 14:43:40;;;;;;;1.85;1.20;;;21.10;52.50;;;;;;5015615;28;20026;-67
2023/02/21 14:46:30;;;;;;;3.42;1.20;;;21.10;52.50;;;;;;5023397;28;20034;-67
2023/02/21 14:49:08;;;;;;;2.15;1.10;;;21.10;52.50;;;;;;5020969;28;20404;-68
2023/02/21 14:51:52;;;;;;;1.50;1.00;;;21.20;52.50;;;;;;5019823;28;20029;-68
2023/02/21 14:54:39;;;;;;;2.60;1.20;;;21.20;52.50;;;;;;5021096;28;20168;-68
2023/02/21 14:57:14;;;;;;;2.60;1.20;;;21.20;53.00;;;;;;5018670;28;20555;-68
2023/02/21 14:59:57;;;;;;;2.13;1.00;;;21.20;52.50;;;;;;5022701;28;20030;-68
2023/02/21 15:02:38;;;;;;;2.47;1.20;;;21.20;52.50;;;;;;5020066;28;20075;-68
2023/02/21 15:05:11;;;;;;;2.58;1.20;;;21.20;52.50;;;;;;5020639;28;20116;-68
2023/02/21 15:07:49;;;;;;;2.30;1.27;;;21.20;53.00;;;;;;5021443;28;20481;-68
2023/02/21 15:10:24;;;;;;;1.65;0.93;;;21.20;52.40;;;;;;5019902;28;20449;-67
2023/02/21 15:13:02;;;;;;;1.65;0.90;;;21.20;52.40;;;;;;5023853;28;20033;-68
2023/02/21 15:15:30;;;;;;;2.17;1.13;;;21.20;52.40;;;;;;5020628;28;20424;-68
2023/02/21 15:18:08;;;;;;;2.13;1.10;;;21.30;52.50;;;;;;5017723;28;20033;-69
2023/02/21 15:20:37;;;;;;;1.98;1.10;;;21.30;52.50;;;;;;5017133;28;20072;-68
2023/02/21 15:23:28;;;;;;;2.55;1.20;;;21.30;52.50;;;;;;5021264;28;20026;-68
2023/02/21 15:25:57;;;;;;;2.78;1.42;;;21.30;52.50;;;;;;5019553;28;20030;-68
2023/02/21 15:28:29;;;;;;;2.25;1.20;;;21.30;52.50;;;;;;5019440;28;20040;-67
2023/02/21 15:30:55;;;;;;;1.95;1.00;;;21.30;52.50;;;;;;5018964;28;20034;-68
2023/02/21 15:33:22;;;;;;;1.75;1.10;;;21.30;52.40;;;;;;5018545;28;20021;-68